Aérodrome :
LOGIN :

S'inscrire | Disclaimer

   EN    FR    IT 

 










Légende :    VFR   VFR Marginal   IFR   IFR Intensif   IFR Très Intensif
Visi : 
Plafond : 
>= 8 km
>= 3000ft
5 à 8 km
1000 à 3000 ft
1500m à 5 km
500 à 1000 ft
800 à 1500m
200 à 500 ft
< 800m
< 200 ft
Symboles :   Orages  Brouillard  Fortes neiges  Fortes précipitations  Vent > 20 kt
SIGMETs :   Divers  Orages  Givrage  Turbulence  Onde Orograph.  Cendres Volcan.







- Altitude de l'aérodrome : 102 ft
- Code IATA : EXT
- Voir les cartes d'approche


EGTE - Exeter

DERNIER METAR :
  • 200120Z 09003KT CAVOK 08/07 Q1023

METARs EXPIRÉS :
  • 200050Z VRB01KT CAVOK 09/08 Q1023
  • 200020Z VRB01KT 9999 FEW030 10/09 Q1023
  • 192350Z 12002KT 9999 FEW030 10/09 Q1023
  • 192320Z 15002KT 9999 FEW030 10/09 Q1023
  • 192250Z 17002KT CAVOK 11/09 Q1023

TAF TAF EGTE
Valide du 20 à 00h jusqu'au 20 à 03h UTC


192256Z 2000/2003 VRB03KT 9999 FEW030
PROB30
TEMPO 2000/2003 9000
Pas de NOTAMs connus pour ce terrain.



MET'MAP, la Météo Aéronautique d'un coup d'oeil ! - Copyright ORBIFLY Décembre 2007 - Disclaimer

ORBIFLY MET'MAP TEAM :

Programmation & Développement : Alexandra Zaïnal
Conception & Développement : Baudouin d'Aumeries
Co-Programmation & Développement : Marc-Olivier Méhu
Soutien technique & logistique : Manuel Goepfert

Contact : metmap@orbifly.com




SOURCES & CREDITS :

   NOAA